URO100P EGHH-EHBK
Flight info
| Callsign | URO100P |
|---|---|
| Flight time | 0h 51m |
| Altitude | 29000 |
| Route | SAM M140 DVR L9 KONAN UL607 SPI DCT LNO |
| Aircraft | A346/H-SDE2E3FGHIJ3J4J5M1RWXY/LB1D1 |
Departure
| Time | 2026-05-07 11:09 |
|---|---|
| Airport | Bournemouth Airport (EGHH) |
Arrival
| Time | 2026-05-07 12:00 |
|---|---|
| Airport | Maastricht Aachen Airport (EHBK) |
| Time | Latitude | Longitude | Altitude | Speed | Heading |
|---|---|---|---|---|---|
| 2026-05-07 10:49 | 50.78607 | -1.84236 | 48 ft | 0 kts | 255° |
| 2026-05-07 10:59 | 50.78612 | -1.84202 | 52 ft | 4 kts | 257° |
| 2026-05-07 10:59 | 50.78618 | -1.84170 | 47 ft | 4 kts | 243° |
| 2026-05-07 11:00 | 50.78629 | -1.84148 | 54 ft | 4 kts | 210° |
| 2026-05-07 11:00 | 50.78646 | -1.84141 | 47 ft | 4 kts | 176° |
| 2026-05-07 11:00 | 50.78669 | -1.84148 | 47 ft | 4 kts | 165° |
| 2026-05-07 11:00 | 50.78688 | -1.84156 | 48 ft | 1 kts | 166° |
| 2026-05-07 11:01 | 50.78691 | -1.84157 | 47 ft | 0 kts | 166° |
| 2026-05-07 11:03 | 50.78679 | -1.84152 | 49 ft | 5 kts | 166° |
| 2026-05-07 11:03 | 50.78625 | -1.84130 | 47 ft | 11 kts | 166° |
| 2026-05-07 11:03 | 50.78529 | -1.84091 | 51 ft | 17 kts | 165° |
| 2026-05-07 11:03 | 50.78404 | -1.84039 | 51 ft | 20 kts | 165° |
| 2026-05-07 11:04 | 50.78261 | -1.83979 | 49 ft | 20 kts | 165° |
| 2026-05-07 11:04 | 50.78149 | -1.83932 | 48 ft | 14 kts | 165° |
| 2026-05-07 11:04 | 50.78068 | -1.83932 | 52 ft | 11 kts | 221° |
| 2026-05-07 11:04 | 50.78036 | -1.84072 | 51 ft | 16 kts | 255° |
| 2026-05-07 11:05 | 50.78004 | -1.84263 | 51 ft | 19 kts | 255° |
| 2026-05-07 11:05 | 50.77967 | -1.84487 | 51 ft | 22 kts | 255° |
| 2026-05-07 11:05 | 50.77927 | -1.84732 | 54 ft | 24 kts | 255° |
| 2026-05-07 11:05 | 50.77882 | -1.85000 | 50 ft | 26 kts | 255° |
| 2026-05-07 11:06 | 50.77839 | -1.85258 | 50 ft | 23 kts | 255° |
| 2026-05-07 11:06 | 50.77798 | -1.85504 | 50 ft | 20 kts | 255° |
| 2026-05-07 11:06 | 50.77775 | -1.85642 | 54 ft | 10 kts | 247° |
| 2026-05-07 11:06 | 50.77735 | -1.85699 | 53 ft | 7 kts | 214° |
| 2026-05-07 11:07 | 50.77718 | -1.85727 | 49 ft | 3 kts | 251° |
| 2026-05-07 11:07 | 50.77724 | -1.85762 | 47 ft | 5 kts | 306° |
| 2026-05-07 11:07 | 50.77752 | -1.85770 | 46 ft | 5 kts | 36° |
| 2026-05-07 11:07 | 50.77760 | -1.85745 | 50 ft | 0 kts | 75° |
| 2026-05-07 11:08 | 50.77776 | -1.85644 | 54 ft | 36 kts | 75° |
| 2026-05-07 11:08 | 50.77906 | -1.84859 | 55 ft | 108 kts | 75° |
| 2026-05-07 11:08 | 50.78152 | -1.83384 | 66 ft | 165 kts | 76° |
| 2026-05-07 11:09 | 50.78472 | -1.81579 | 642 ft | 171 kts | 77° |
| 2026-05-07 11:09 | 50.78803 | -1.79747 | 1401 ft | 173 kts | 76° |
| 2026-05-07 11:09 | 50.79233 | -1.77940 | 2113 ft | 180 kts | 65° |
| 2026-05-07 11:09 | 50.79882 | -1.76179 | 2547 ft | 196 kts | 60° |
| 2026-05-07 11:10 | 50.80637 | -1.74278 | 2999 ft | 212 kts | 60° |
| 2026-05-07 11:10 | 50.81442 | -1.72215 | 3436 ft | 230 kts | 59° |
| 2026-05-07 11:10 | 50.82311 | -1.69951 | 3895 ft | 251 kts | 59° |
| 2026-05-07 11:10 | 50.83238 | -1.67507 | 4557 ft | 264 kts | 59° |
| 2026-05-07 11:11 | 50.84187 | -1.64982 | 5470 ft | 268 kts | 59° |
| 2026-05-07 11:11 | 50.85149 | -1.62414 | 6443 ft | 273 kts | 59° |
| 2026-05-07 11:11 | 50.86124 | -1.59803 | 7313 ft | 278 kts | 59° |
| 2026-05-07 11:11 | 50.87122 | -1.57141 | 8227 ft | 283 kts | 60° |
| 2026-05-07 11:12 | 50.88128 | -1.54445 | 9202 ft | 285 kts | 60° |
| 2026-05-07 11:12 | 50.89141 | -1.51721 | 10201 ft | 288 kts | 61° |
| 2026-05-07 11:12 | 50.90171 | -1.48934 | 10971 ft | 299 kts | 61° |
| 2026-05-07 11:12 | 50.91253 | -1.45992 | 11540 ft | 317 kts | 61° |
| 2026-05-07 11:13 | 50.92385 | -1.42921 | 12042 ft | 336 kts | 61° |
| 2026-05-07 11:13 | 50.93596 | -1.39632 | 12553 ft | 354 kts | 61° |
| 2026-05-07 11:13 | 50.94755 | -1.36066 | 13011 ft | 372 kts | 67° |
| 2026-05-07 11:13 | 50.95617 | -1.32105 | 13662 ft | 383 kts | 76° |
| 2026-05-07 11:14 | 50.96127 | -1.27924 | 14495 ft | 387 kts | 82° |
| 2026-05-07 11:14 | 50.96514 | -1.23668 | 15322 ft | 392 kts | 83° |
| 2026-05-07 11:14 | 50.96882 | -1.19345 | 16098 ft | 397 kts | 83° |
| 2026-05-07 11:14 | 50.97252 | -1.14965 | 16847 ft | 403 kts | 83° |
| 2026-05-07 11:15 | 50.97630 | -1.10511 | 17613 ft | 409 kts | 83° |
| 2026-05-07 11:15 | 50.98015 | -1.05999 | 18378 ft | 414 kts | 83° |
| 2026-05-07 11:15 | 50.98405 | -1.01430 | 19029 ft | 420 kts | 83° |
| 2026-05-07 11:15 | 50.98793 | -0.96869 | 19691 ft | 424 kts | 83° |
| 2026-05-07 11:16 | 50.99214 | -0.91915 | 20432 ft | 428 kts | 83° |
| 2026-05-07 11:16 | 50.99589 | -0.87485 | 21094 ft | 432 kts | 83° |
| 2026-05-07 11:16 | 50.99991 | -0.82722 | 21784 ft | 436 kts | 83° |
| 2026-05-07 11:16 | 51.00395 | -0.77907 | 22452 ft | 441 kts | 83° |
| 2026-05-07 11:17 | 51.00800 | -0.73051 | 23109 ft | 445 kts | 83° |
| 2026-05-07 11:17 | 51.01209 | -0.68135 | 23741 ft | 450 kts | 83° |
| 2026-05-07 11:17 | 51.01619 | -0.63176 | 24285 ft | 454 kts | 83° |
| 2026-05-07 11:17 | 51.02029 | -0.58182 | 24850 ft | 457 kts | 83° |
| 2026-05-07 11:18 | 51.02441 | -0.53141 | 25409 ft | 461 kts | 83° |
| 2026-05-07 11:18 | 51.02854 | -0.48073 | 25956 ft | 464 kts | 83° |
| 2026-05-07 11:18 | 51.03267 | -0.42960 | 26499 ft | 467 kts | 83° |
| 2026-05-07 11:18 | 51.03681 | -0.37807 | 27060 ft | 470 kts | 83° |
| 2026-05-07 11:19 | 51.04093 | -0.32657 | 27808 ft | 469 kts | 83° |
| 2026-05-07 11:19 | 51.04503 | -0.27501 | 28456 ft | 470 kts | 83° |
| 2026-05-07 11:19 | 51.04913 | -0.22323 | 28734 ft | 472 kts | 83° |
| 2026-05-07 11:19 | 51.05322 | -0.17126 | 29013 ft | 473 kts | 83° |
| 2026-05-07 11:20 | 51.06128 | -0.06775 | 29078 ft | 475 kts | 83° |
| 2026-05-07 11:20 | 51.06931 | 0.03664 | 29001 ft | 474 kts | 84° |
| 2026-05-07 11:21 | 51.07725 | 0.14101 | 28964 ft | 474 kts | 84° |
| 2026-05-07 11:21 | 51.08509 | 0.24541 | 28931 ft | 474 kts | 84° |
| 2026-05-07 11:22 | 51.09283 | 0.34966 | 28903 ft | 474 kts | 84° |
| 2026-05-07 11:22 | 51.10043 | 0.45338 | 28896 ft | 474 kts | 84° |
| 2026-05-07 11:23 | 51.10798 | 0.55796 | 28912 ft | 475 kts | 84° |
| 2026-05-07 11:23 | 51.11544 | 0.66253 | 28936 ft | 475 kts | 84° |
| 2026-05-07 11:24 | 51.12280 | 0.76725 | 28992 ft | 475 kts | 84° |
| 2026-05-07 11:24 | 51.13006 | 0.87193 | 29030 ft | 475 kts | 84° |
| 2026-05-07 11:25 | 51.13722 | 0.97662 | 29105 ft | 475 kts | 84° |
| 2026-05-07 11:25 | 51.14430 | 1.08140 | 29098 ft | 475 kts | 84° |
| 2026-05-07 11:26 | 51.15125 | 1.18573 | 29098 ft | 475 kts | 84° |
| 2026-05-07 11:26 | 51.15803 | 1.29063 | 29095 ft | 475 kts | 85° |
| 2026-05-07 11:27 | 51.16012 | 1.39590 | 29080 ft | 474 kts | 92° |
| 2026-05-07 11:27 | 51.15596 | 1.50099 | 29091 ft | 475 kts | 95° |
| 2026-05-07 11:28 | 51.15073 | 1.60609 | 29090 ft | 475 kts | 95° |
| 2026-05-07 11:28 | 51.14547 | 1.71122 | 29082 ft | 475 kts | 95° |
| 2026-05-07 11:29 | 51.14018 | 1.81633 | 29085 ft | 475 kts | 95° |
| 2026-05-07 11:29 | 51.13481 | 1.92134 | 29072 ft | 475 kts | 95° |
| 2026-05-07 11:30 | 51.12937 | 2.02654 | 29084 ft | 476 kts | 95° |
| 2026-05-07 11:30 | 51.12415 | 2.13173 | 29080 ft | 476 kts | 95° |
| 2026-05-07 11:31 | 51.11886 | 2.23705 | 29077 ft | 476 kts | 95° |
| 2026-05-07 11:31 | 51.11346 | 2.34217 | 29079 ft | 476 kts | 95° |
| 2026-05-07 11:32 | 51.10518 | 2.49952 | 29075 ft | 476 kts | 96° |
| 2026-05-07 11:33 | 51.09883 | 2.60477 | 29060 ft | 476 kts | 98° |
| 2026-05-07 11:33 | 51.08645 | 2.70828 | 29075 ft | 475 kts | 105° |
| 2026-05-07 11:34 | 51.06835 | 2.80959 | 29081 ft | 475 kts | 107° |
| 2026-05-07 11:34 | 51.04960 | 2.91056 | 29081 ft | 475 kts | 108° |
| 2026-05-07 11:35 | 51.03095 | 3.01081 | 29082 ft | 475 kts | 108° |
| 2026-05-07 11:35 | 51.01214 | 3.11164 | 29072 ft | 475 kts | 108° |
| 2026-05-07 11:36 | 50.99327 | 3.21238 | 29072 ft | 475 kts | 108° |
| 2026-05-07 11:36 | 50.97428 | 3.31318 | 29053 ft | 475 kts | 108° |
| 2026-05-07 11:36 | 50.96476 | 3.36353 | 28767 ft | 475 kts | 108° |
| 2026-05-07 11:37 | 50.95527 | 3.41354 | 28364 ft | 472 kts | 108° |
| 2026-05-07 11:37 | 50.94582 | 3.46326 | 27842 ft | 468 kts | 108° |
| 2026-05-07 11:37 | 50.93639 | 3.51273 | 27237 ft | 467 kts | 108° |
| 2026-05-07 11:37 | 50.92697 | 3.56198 | 26583 ft | 466 kts | 108° |
| 2026-05-07 11:38 | 50.91769 | 3.61034 | 26107 ft | 461 kts | 108° |
| 2026-05-07 11:38 | 50.90836 | 3.65892 | 25688 ft | 458 kts | 108° |
| 2026-05-07 11:38 | 50.89910 | 3.70707 | 25247 ft | 454 kts | 108° |
| 2026-05-07 11:38 | 50.88992 | 3.75476 | 24799 ft | 450 kts | 108° |
| 2026-05-07 11:39 | 50.88080 | 3.80197 | 24366 ft | 447 kts | 108° |
| 2026-05-07 11:39 | 50.87169 | 3.84899 | 23922 ft | 443 kts | 108° |
| 2026-05-07 11:39 | 50.86560 | 3.88043 | 23620 ft | 441 kts | 108° |
| 2026-05-07 11:39 | 50.85659 | 3.92673 | 23110 ft | 437 kts | 108° |
| 2026-05-07 11:40 | 50.84779 | 3.97192 | 22652 ft | 432 kts | 108° |
| 2026-05-07 11:40 | 50.83898 | 4.01703 | 22195 ft | 428 kts | 108° |
| 2026-05-07 11:40 | 50.83019 | 4.06195 | 21747 ft | 423 kts | 108° |
| 2026-05-07 11:40 | 50.82148 | 4.10631 | 21301 ft | 420 kts | 108° |
| 2026-05-07 11:41 | 50.81284 | 4.15021 | 20856 ft | 416 kts | 108° |
| 2026-05-07 11:41 | 50.80434 | 4.19337 | 20418 ft | 413 kts | 108° |
| 2026-05-07 11:41 | 50.79579 | 4.23665 | 19976 ft | 410 kts | 108° |
| 2026-05-07 11:41 | 50.78728 | 4.27960 | 19520 ft | 406 kts | 108° |
| 2026-05-07 11:42 | 50.77883 | 4.32220 | 19094 ft | 403 kts | 108° |
| 2026-05-07 11:42 | 50.77043 | 4.36442 | 18655 ft | 401 kts | 108° |
| 2026-05-07 11:42 | 50.76208 | 4.40632 | 18209 ft | 398 kts | 108° |
| 2026-05-07 11:42 | 50.75377 | 4.44793 | 17721 ft | 395 kts | 108° |
| 2026-05-07 11:43 | 50.74550 | 4.48917 | 17276 ft | 392 kts | 108° |
| 2026-05-07 11:43 | 50.73728 | 4.53010 | 16850 ft | 388 kts | 108° |
| 2026-05-07 11:43 | 50.72911 | 4.57071 | 16356 ft | 387 kts | 108° |
| 2026-05-07 11:43 | 50.72096 | 4.61130 | 15800 ft | 387 kts | 108° |
| 2026-05-07 11:44 | 50.71304 | 4.65194 | 15221 ft | 387 kts | 107° |
| 2026-05-07 11:44 | 50.70519 | 4.69269 | 14670 ft | 387 kts | 107° |
| 2026-05-07 11:44 | 50.69747 | 4.73272 | 14182 ft | 385 kts | 107° |
| 2026-05-07 11:44 | 50.68957 | 4.77353 | 13712 ft | 382 kts | 107° |
| 2026-05-07 11:45 | 50.68191 | 4.81294 | 13249 ft | 378 kts | 107° |
| 2026-05-07 11:45 | 50.67422 | 4.85238 | 12808 ft | 374 kts | 108° |
| 2026-05-07 11:45 | 50.66660 | 4.89133 | 12372 ft | 369 kts | 108° |
| 2026-05-07 11:45 | 50.65900 | 4.92987 | 11941 ft | 366 kts | 108° |
| 2026-05-07 11:46 | 50.65125 | 4.96788 | 11524 ft | 362 kts | 108° |
| 2026-05-07 11:46 | 50.64353 | 5.00544 | 11122 ft | 358 kts | 108° |
| 2026-05-07 11:46 | 50.63588 | 5.04256 | 10807 ft | 350 kts | 109° |
| 2026-05-07 11:46 | 50.62849 | 5.07839 | 10713 ft | 336 kts | 109° |
| 2026-05-07 11:47 | 50.62141 | 5.11267 | 10570 ft | 323 kts | 108° |
| 2026-05-07 11:47 | 50.61458 | 5.14569 | 10466 ft | 310 kts | 108° |
| 2026-05-07 11:47 | 50.60803 | 5.17731 | 10370 ft | 298 kts | 108° |
| 2026-05-07 11:47 | 50.60173 | 5.20779 | 10263 ft | 286 kts | 108° |
| 2026-05-07 11:48 | 50.59573 | 5.23673 | 10181 ft | 277 kts | 108° |
| 2026-05-07 11:48 | 50.58977 | 5.26543 | 10105 ft | 273 kts | 108° |
| 2026-05-07 11:48 | 50.58385 | 5.29389 | 9833 ft | 274 kts | 108° |
| 2026-05-07 11:48 | 50.57792 | 5.32239 | 9487 ft | 273 kts | 108° |
| 2026-05-07 11:49 | 50.57202 | 5.35067 | 9192 ft | 271 kts | 108° |
| 2026-05-07 11:49 | 50.56614 | 5.37883 | 8894 ft | 269 kts | 108° |
| 2026-05-07 11:49 | 50.56031 | 5.40668 | 8609 ft | 267 kts | 108° |
| 2026-05-07 11:49 | 50.55452 | 5.43433 | 8328 ft | 265 kts | 108° |
| 2026-05-07 11:50 | 50.54875 | 5.46186 | 8048 ft | 264 kts | 108° |
| 2026-05-07 11:50 | 50.54298 | 5.48932 | 7773 ft | 263 kts | 108° |
| 2026-05-07 11:50 | 50.53723 | 5.51662 | 7497 ft | 262 kts | 108° |
| 2026-05-07 11:50 | 50.53149 | 5.54388 | 7218 ft | 262 kts | 108° |
| 2026-05-07 11:51 | 50.52581 | 5.57081 | 6945 ft | 262 kts | 108° |
| 2026-05-07 11:51 | 50.52111 | 5.59838 | 6615 ft | 261 kts | 93° |
| 2026-05-07 11:51 | 50.52383 | 5.62613 | 6269 ft | 258 kts | 65° |
| 2026-05-07 11:51 | 50.53411 | 5.64869 | 5968 ft | 253 kts | 40° |
| 2026-05-07 11:52 | 50.54866 | 5.66308 | 5719 ft | 245 kts | 15° |
| 2026-05-07 11:52 | 50.56509 | 5.66777 | 5555 ft | 236 kts | 5° |
| 2026-05-07 11:52 | 50.58124 | 5.66893 | 5369 ft | 230 kts | 359° |
| 2026-05-07 11:52 | 50.59723 | 5.66854 | 5085 ft | 229 kts | 358° |
| 2026-05-07 11:53 | 50.61298 | 5.66780 | 4895 ft | 223 kts | 358° |
| 2026-05-07 11:53 | 50.62830 | 5.66699 | 4697 ft | 217 kts | 358° |
| 2026-05-07 11:53 | 50.64329 | 5.66615 | 4509 ft | 215 kts | 358° |
| 2026-05-07 11:53 | 50.65826 | 5.66526 | 4329 ft | 215 kts | 358° |
| 2026-05-07 11:54 | 50.67317 | 5.66434 | 4144 ft | 214 kts | 358° |
| 2026-05-07 11:54 | 50.68805 | 5.66339 | 3967 ft | 213 kts | 358° |
| 2026-05-07 11:54 | 50.70288 | 5.66242 | 3775 ft | 213 kts | 358° |
| 2026-05-07 11:54 | 50.71765 | 5.66142 | 3592 ft | 210 kts | 358° |
| 2026-05-07 11:55 | 50.73205 | 5.66043 | 3443 ft | 202 kts | 358° |
| 2026-05-07 11:55 | 50.74559 | 5.65943 | 3284 ft | 192 kts | 358° |
| 2026-05-07 11:55 | 50.75872 | 5.65841 | 3095 ft | 185 kts | 358° |
| 2026-05-07 11:55 | 50.77126 | 5.65744 | 2921 ft | 174 kts | 358° |
| 2026-05-07 11:56 | 50.78287 | 5.65653 | 2777 ft | 162 kts | 358° |
| 2026-05-07 11:56 | 50.79401 | 5.65631 | 2622 ft | 160 kts | 12° |
| 2026-05-07 11:56 | 50.80443 | 5.66232 | 2521 ft | 160 kts | 25° |
| 2026-05-07 11:56 | 50.81410 | 5.67088 | 2381 ft | 159 kts | 30° |
| 2026-05-07 11:57 | 50.82345 | 5.68018 | 2248 ft | 159 kts | 31° |
| 2026-05-07 11:57 | 50.83254 | 5.68951 | 2015 ft | 150 kts | 32° |
| 2026-05-07 11:57 | 50.84116 | 5.69836 | 1806 ft | 146 kts | 32° |
| 2026-05-07 11:57 | 50.84975 | 5.70712 | 1617 ft | 146 kts | 32° |
| 2026-05-07 11:58 | 50.85828 | 5.71580 | 1430 ft | 145 kts | 32° |
| 2026-05-07 11:58 | 50.86678 | 5.72444 | 1228 ft | 145 kts | 31° |
| 2026-05-07 11:58 | 50.87529 | 5.73307 | 1022 ft | 145 kts | 31° |
| 2026-05-07 11:58 | 50.88378 | 5.74164 | 806 ft | 144 kts | 32° |
| 2026-05-07 11:59 | 50.89222 | 5.75025 | 621 ft | 144 kts | 32° |
| 2026-05-07 11:59 | 50.90054 | 5.75872 | 462 ft | 144 kts | 32° |
| 2026-05-07 11:59 | 50.90873 | 5.76702 | 391 ft | 125 kts | 32° |
| 2026-05-07 11:59 | 50.91451 | 5.77288 | 391 ft | 71 kts | 32° |
| 2026-05-07 12:00 | 50.91741 | 5.77581 | 390 ft | 40 kts | 32° |
| 2026-05-07 12:00 | 50.91928 | 5.77771 | 392 ft | 22 kts | 33° |
| 2026-05-07 12:00 | 50.92022 | 5.77867 | 392 ft | 11 kts | 32° |
| 2026-05-07 12:00 | 50.92049 | 5.77887 | 392 ft | 0 kts | 8° |
| 2026-05-07 12:01 | 50.92060 | 5.77886 | 392 ft | 4 kts | 348° |
| 2026-05-07 12:01 | 50.92099 | 5.77825 | 393 ft | 11 kts | 305° |
| 2026-05-07 12:01 | 50.92139 | 5.77726 | 392 ft | 7 kts | 288° |
| 2026-05-07 12:01 | 50.92137 | 5.77652 | 392 ft | 6 kts | 283° |
| 2026-05-07 12:02 | 50.92154 | 5.77601 | 392 ft | 4 kts | 302° |
| 2026-05-07 12:02 | 50.92165 | 5.77574 | 392 ft | 0 kts | 302° |